sensor_id;sensor_type;location;lat;lon;timestamp;pressure;altitude;pressure_sealevel;temperature
29423;BMP180;16399;51.686;8.684;2023-05-07T00:00:59;99968.00;;;13.40
29423;BMP180;16399;51.686;8.684;2023-05-07T00:04:01;99960.00;;;13.30
29423;BMP180;16399;51.686;8.684;2023-05-07T00:07:04;99965.00;;;13.30
29423;BMP180;16399;51.686;8.684;2023-05-07T00:10:07;99957.00;;;13.30
29423;BMP180;16399;51.686;8.684;2023-05-07T00:13:10;99956.00;;;13.30
29423;BMP180;16399;51.686;8.684;2023-05-07T00:16:12;99962.00;;;13.30
29423;BMP180;16399;51.686;8.684;2023-05-07T00:19:14;99961.00;;;13.30
29423;BMP180;16399;51.686;8.684;2023-05-07T00:22:17;99967.00;;;13.30
29423;BMP180;16399;51.686;8.684;2023-05-07T00:25:19;99968.00;;;13.30
29423;BMP180;16399;51.686;8.684;2023-05-07T00:28:21;99975.00;;;13.20
29423;BMP180;16399;51.686;8.684;2023-05-07T00:31:23;99972.00;;;13.30
29423;BMP180;16399;51.686;8.684;2023-05-07T00:34:26;99979.00;;;13.30
29423;BMP180;16399;51.686;8.684;2023-05-07T00:37:28;99985.00;;;13.30
29423;BMP180;16399;51.686;8.684;2023-05-07T00:40:31;99974.00;;;13.30
29423;BMP180;16399;51.686;8.684;2023-05-07T00:43:33;99972.00;;;13.30
29423;BMP180;16399;51.686;8.684;2023-05-07T00:46:36;99967.00;;;13.30
29423;BMP180;16399;51.686;8.684;2023-05-07T00:49:44;99968.00;;;13.30
29423;BMP180;16399;51.686;8.684;2023-05-07T00:52:43;99967.00;;;13.30
29423;BMP180;16399;51.686;8.684;2023-05-07T00:55:45;99968.00;;;13.30
29423;BMP180;16399;51.686;8.684;2023-05-07T00:58:48;99969.00;;;13.30
29423;BMP180;16399;51.686;8.684;2023-05-07T01:01:52;99969.00;;;13.40
29423;BMP180;16399;51.686;8.684;2023-05-07T01:04:55;99968.00;;;13.40
29423;BMP180;16399;51.686;8.684;2023-05-07T01:07:58;99963.00;;;13.40
29423;BMP180;16399;51.686;8.684;2023-05-07T01:11:01;99962.00;;;13.40
29423;BMP180;16399;51.686;8.684;2023-05-07T01:14:03;99964.00;;;13.40
29423;BMP180;16399;51.686;8.684;2023-05-07T01:17:06;99958.00;;;13.40
29423;BMP180;16399;51.686;8.684;2023-05-07T01:20:09;99967.00;;;13.40
29423;BMP180;16399;51.686;8.684;2023-05-07T01:23:12;99954.00;;;13.40
29423;BMP180;16399;51.686;8.684;2023-05-07T01:26:14;99957.00;;;13.40
29423;BMP180;16399;51.686;8.684;2023-05-07T01:29:17;99962.00;;;13.40
29423;BMP180;16399;51.686;8.684;2023-05-07T01:32:22;99963.00;;;13.30
29423;BMP180;16399;51.686;8.684;2023-05-07T01:35:35;99960.00;;;13.30
29423;BMP180;16399;51.686;8.684;2023-05-07T01:38:34;99960.00;;;13.30
29423;BMP180;16399;51.686;8.684;2023-05-07T01:41:37;99966.00;;;13.30
29423;BMP180;16399;51.686;8.684;2023-05-07T01:44:39;99949.00;;;13.30
29423;BMP180;16399;51.686;8.684;2023-05-07T01:47:42;99964.00;;;13.30
29423;BMP180;16399;51.686;8.684;2023-05-07T01:50:47;99965.00;;;13.20
29423;BMP180;16399;51.686;8.684;2023-05-07T01:53:50;99968.00;;;13.20
29423;BMP180;16399;51.686;8.684;2023-05-07T01:56:55;99969.00;;;13.20
29423;BMP180;16399;51.686;8.684;2023-05-07T01:59:58;99968.00;;;13.20
29423;BMP180;16399;51.686;8.684;2023-05-07T02:03:00;99963.00;;;13.10
29423;BMP180;16399;51.686;8.684;2023-05-07T02:06:03;99970.00;;;13.10
29423;BMP180;16399;51.686;8.684;2023-05-07T02:09:05;99973.00;;;13.10
29423;BMP180;16399;51.686;8.684;2023-05-07T02:12:09;99973.00;;;13.10
29423;BMP180;16399;51.686;8.684;2023-05-07T02:15:11;99968.00;;;13.10
29423;BMP180;16399;51.686;8.684;2023-05-07T02:18:14;99974.00;;;13.10
29423;BMP180;16399;51.686;8.684;2023-05-07T02:21:16;99973.00;;;13.00
29423;BMP180;16399;51.686;8.684;2023-05-07T02:24:19;99977.00;;;13.00
29423;BMP180;16399;51.686;8.684;2023-05-07T02:27:21;99973.00;;;13.00
29423;BMP180;16399;51.686;8.684;2023-05-07T02:30:24;99969.00;;;13.00
29423;BMP180;16399;51.686;8.684;2023-05-07T02:33:26;99969.00;;;12.90
29423;BMP180;16399;51.686;8.684;2023-05-07T02:36:28;99968.00;;;12.90
29423;BMP180;16399;51.686;8.684;2023-05-07T02:39:30;99960.00;;;12.90
29423;BMP180;16399;51.686;8.684;2023-05-07T02:42:33;99972.00;;;12.90
29423;BMP180;16399;51.686;8.684;2023-05-07T02:45:35;99966.00;;;12.90
29423;BMP180;16399;51.686;8.684;2023-05-07T02:48:38;99974.00;;;12.90
29423;BMP180;16399;51.686;8.684;2023-05-07T02:51:41;99981.00;;;12.80
29423;BMP180;16399;51.686;8.684;2023-05-07T02:54:43;99979.00;;;12.80
29423;BMP180;16399;51.686;8.684;2023-05-07T02:57:45;99978.00;;;12.80
29423;BMP180;16399;51.686;8.684;2023-05-07T03:00:48;99979.00;;;12.80
29423;BMP180;16399;51.686;8.684;2023-05-07T03:03:51;99982.00;;;12.80
29423;BMP180;16399;51.686;8.684;2023-05-07T03:06:53;99985.00;;;12.80
29423;BMP180;16399;51.686;8.684;2023-05-07T03:09:55;99984.00;;;12.80
29423;BMP180;16399;51.686;8.684;2023-05-07T03:12:58;99984.00;;;12.70
29423;BMP180;16399;51.686;8.684;2023-05-07T03:16:00;99968.00;;;12.70
29423;BMP180;16399;51.686;8.684;2023-05-07T03:19:02;99960.00;;;12.70
29423;BMP180;16399;51.686;8.684;2023-05-07T03:22:05;99957.00;;;12.70
29423;BMP180;16399;51.686;8.684;2023-05-07T03:25:08;99966.00;;;12.70
29423;BMP180;16399;51.686;8.684;2023-05-07T03:28:10;99961.00;;;12.70
29423;BMP180;16399;51.686;8.684;2023-05-07T03:31:12;99959.00;;;12.60
29423;BMP180;16399;51.686;8.684;2023-05-07T03:34:15;99954.00;;;12.60
29423;BMP180;16399;51.686;8.684;2023-05-07T03:37:18;99962.00;;;12.60
29423;BMP180;16399;51.686;8.684;2023-05-07T03:40:20;99968.00;;;12.60
29423;BMP180;16399;51.686;8.684;2023-05-07T03:43:23;99968.00;;;12.60
29423;BMP180;16399;51.686;8.684;2023-05-07T03:46:25;99965.00;;;12.50
29423;BMP180;16399;51.686;8.684;2023-05-07T03:49:29;99972.00;;;12.60
29423;BMP180;16399;51.686;8.684;2023-05-07T03:52:31;99975.00;;;12.50
29423;BMP180;16399;51.686;8.684;2023-05-07T03:55:33;99978.00;;;12.50
29423;BMP180;16399;51.686;8.684;2023-05-07T03:58:36;99977.00;;;12.50
29423;BMP180;16399;51.686;8.684;2023-05-07T04:01:39;99980.00;;;12.50
29423;BMP180;16399;51.686;8.684;2023-05-07T04:04:41;99977.00;;;12.50
29423;BMP180;16399;51.686;8.684;2023-05-07T04:07:43;99979.00;;;12.50
29423;BMP180;16399;51.686;8.684;2023-05-07T04:10:46;99989.00;;;12.50
29423;BMP180;16399;51.686;8.684;2023-05-07T04:13:48;100002.00;;;12.50
29423;BMP180;16399;51.686;8.684;2023-05-07T04:16:50;100004.00;;;12.50
29423;BMP180;16399;51.686;8.684;2023-05-07T04:19:53;100003.00;;;12.50
29423;BMP180;16399;51.686;8.684;2023-05-07T04:22:55;100003.00;;;12.50
29423;BMP180;16399;51.686;8.684;2023-05-07T04:25:57;100002.00;;;12.50
29423;BMP180;16399;51.686;8.684;2023-05-07T04:28:59;99999.00;;;12.50
29423;BMP180;16399;51.686;8.684;2023-05-07T04:32:02;100007.00;;;12.50
29423;BMP180;16399;51.686;8.684;2023-05-07T04:35:05;100011.00;;;12.50
29423;BMP180;16399;51.686;8.684;2023-05-07T04:38:08;100012.00;;;12.50
29423;BMP180;16399;51.686;8.684;2023-05-07T04:41:12;100018.00;;;12.50
29423;BMP180;16399;51.686;8.684;2023-05-07T04:44:14;100018.00;;;12.50
29423;BMP180;16399;51.686;8.684;2023-05-07T04:47:17;100023.00;;;12.50
29423;BMP180;16399;51.686;8.684;2023-05-07T04:50:20;100026.00;;;12.50
29423;BMP180;16399;51.686;8.684;2023-05-07T04:53:24;100021.00;;;12.50
29423;BMP180;16399;51.686;8.684;2023-05-07T04:56:28;100015.00;;;12.50
29423;BMP180;16399;51.686;8.684;2023-05-07T04:59:32;100023.00;;;12.60
29423;BMP180;16399;51.686;8.684;2023-05-07T05:02:35;100019.00;;;12.60
29423;BMP180;16399;51.686;8.684;2023-05-07T05:05:37;100025.00;;;12.60
29423;BMP180;16399;51.686;8.684;2023-05-07T05:08:39;100013.00;;;12.60
29423;BMP180;16399;51.686;8.684;2023-05-07T05:11:42;100017.00;;;12.70
29423;BMP180;16399;51.686;8.684;2023-05-07T05:14:44;100021.00;;;12.60
29423;BMP180;16399;51.686;8.684;2023-05-07T05:17:46;100017.00;;;12.70
29423;BMP180;16399;51.686;8.684;2023-05-07T05:20:49;100018.00;;;12.70
29423;BMP180;16399;51.686;8.684;2023-05-07T05:23:51;100026.00;;;12.80
29423;BMP180;16399;51.686;8.684;2023-05-07T05:26:54;100025.00;;;12.90
29423;BMP180;16399;51.686;8.684;2023-05-07T05:29:56;100038.00;;;12.90
29423;BMP180;16399;51.686;8.684;2023-05-07T05:32:58;100046.00;;;12.90
29423;BMP180;16399;51.686;8.684;2023-05-07T05:36:01;100052.00;;;12.90
29423;BMP180;16399;51.686;8.684;2023-05-07T05:39:03;100042.00;;;12.90
29423;BMP180;16399;51.686;8.684;2023-05-07T05:42:05;100038.00;;;13.00
29423;BMP180;16399;51.686;8.684;2023-05-07T05:45:08;100042.00;;;13.00
29423;BMP180;16399;51.686;8.684;2023-05-07T05:48:11;100050.00;;;13.00
29423;BMP180;16399;51.686;8.684;2023-05-07T05:51:13;100044.00;;;13.10
29423;BMP180;16399;51.686;8.684;2023-05-07T05:54:15;100049.00;;;13.10
29423;BMP180;16399;51.686;8.684;2023-05-07T05:57:18;100041.00;;;13.10
29423;BMP180;16399;51.686;8.684;2023-05-07T06:00:20;100048.00;;;13.10
29423;BMP180;16399;51.686;8.684;2023-05-07T06:03:25;100056.00;;;13.20
29423;BMP180;16399;51.686;8.684;2023-05-07T06:06:28;100042.00;;;13.20
29423;BMP180;16399;51.686;8.684;2023-05-07T06:09:30;100056.00;;;13.30
29423;BMP180;16399;51.686;8.684;2023-05-07T06:12:33;100058.00;;;13.30
29423;BMP180;16399;51.686;8.684;2023-05-07T06:15:36;100051.00;;;13.30
29423;BMP180;16399;51.686;8.684;2023-05-07T06:18:38;100051.00;;;13.30
29423;BMP180;16399;51.686;8.684;2023-05-07T06:21:40;100061.00;;;13.20
29423;BMP180;16399;51.686;8.684;2023-05-07T06:24:42;100060.00;;;13.30
29423;BMP180;16399;51.686;8.684;2023-05-07T06:27:45;100056.00;;;13.20
29423;BMP180;16399;51.686;8.684;2023-05-07T06:30:47;100047.00;;;13.30
29423;BMP180;16399;51.686;8.684;2023-05-07T06:33:51;100057.00;;;13.30
29423;BMP180;16399;51.686;8.684;2023-05-07T06:36:53;100063.00;;;13.30
29423;BMP180;16399;51.686;8.684;2023-05-07T06:39:55;100058.00;;;13.30
29423;BMP180;16399;51.686;8.684;2023-05-07T06:42:58;100063.00;;;13.30
29423;BMP180;16399;51.686;8.684;2023-05-07T06:46:00;100076.00;;;13.30
29423;BMP180;16399;51.686;8.684;2023-05-07T06:49:02;100077.00;;;13.40
29423;BMP180;16399;51.686;8.684;2023-05-07T06:52:04;100075.00;;;13.40
29423;BMP180;16399;51.686;8.684;2023-05-07T06:55:07;100080.00;;;13.50
29423;BMP180;16399;51.686;8.684;2023-05-07T06:58:10;100089.00;;;13.50
29423;BMP180;16399;51.686;8.684;2023-05-07T07:01:12;100099.00;;;13.50
29423;BMP180;16399;51.686;8.684;2023-05-07T07:04:14;100094.00;;;13.50
29423;BMP180;16399;51.686;8.684;2023-05-07T07:07:16;100093.00;;;13.50
29423;BMP180;16399;51.686;8.684;2023-05-07T07:10:20;100095.00;;;13.60
29423;BMP180;16399;51.686;8.684;2023-05-07T07:13:22;100102.00;;;13.60
29423;BMP180;16399;51.686;8.684;2023-05-07T07:16:24;100094.00;;;13.60
29423;BMP180;16399;51.686;8.684;2023-05-07T07:19:26;100108.00;;;13.60
29423;BMP180;16399;51.686;8.684;2023-05-07T07:22:29;100109.00;;;13.50
29423;BMP180;16399;51.686;8.684;2023-05-07T07:25:32;100108.00;;;13.60
29423;BMP180;16399;51.686;8.684;2023-05-07T07:28:34;100109.00;;;13.70
29423;BMP180;16399;51.686;8.684;2023-05-07T07:31:37;100099.00;;;13.80
29423;BMP180;16399;51.686;8.684;2023-05-07T07:34:39;100108.00;;;13.70
29423;BMP180;16399;51.686;8.684;2023-05-07T07:37:41;100111.00;;;13.90
29423;BMP180;16399;51.686;8.684;2023-05-07T07:40:44;100111.00;;;13.90
29423;BMP180;16399;51.686;8.684;2023-05-07T07:43:47;100113.00;;;14.00
29423;BMP180;16399;51.686;8.684;2023-05-07T07:46:49;100103.00;;;14.00
29423;BMP180;16399;51.686;8.684;2023-05-07T07:49:51;100103.00;;;14.10
29423;BMP180;16399;51.686;8.684;2023-05-07T07:52:54;100097.00;;;14.20
29423;BMP180;16399;51.686;8.684;2023-05-07T07:55:56;100097.00;;;14.30
29423;BMP180;16399;51.686;8.684;2023-05-07T07:58:58;100096.00;;;14.40
29423;BMP180;16399;51.686;8.684;2023-05-07T08:02:01;100099.00;;;14.60
29423;BMP180;16399;51.686;8.684;2023-05-07T08:05:03;100097.00;;;14.50
29423;BMP180;16399;51.686;8.684;2023-05-07T08:08:06;100110.00;;;14.60
29423;BMP180;16399;51.686;8.684;2023-05-07T08:11:08;100109.00;;;14.80
29423;BMP180;16399;51.686;8.684;2023-05-07T08:14:11;100104.00;;;15.00
29423;BMP180;16399;51.686;8.684;2023-05-07T08:17:13;100119.00;;;15.20
29423;BMP180;16399;51.686;8.684;2023-05-07T08:20:17;100110.00;;;15.40
29423;BMP180;16399;51.686;8.684;2023-05-07T08:23:19;100110.00;;;15.60
29423;BMP180;16399;51.686;8.684;2023-05-07T08:26:21;100098.00;;;15.70
29423;BMP180;16399;51.686;8.684;2023-05-07T08:29:24;100107.00;;;15.70
29423;BMP180;16399;51.686;8.684;2023-05-07T08:32:26;100114.00;;;15.70
29423;BMP180;16399;51.686;8.684;2023-05-07T08:35:28;100115.00;;;15.70
29423;BMP180;16399;51.686;8.684;2023-05-07T08:38:31;100108.00;;;15.60
29423;BMP180;16399;51.686;8.684;2023-05-07T08:41:34;100108.00;;;15.60
29423;BMP180;16399;51.686;8.684;2023-05-07T08:44:38;100099.00;;;15.70
29423;BMP180;16399;51.686;8.684;2023-05-07T08:47:46;100103.00;;;15.80
29423;BMP180;16399;51.686;8.684;2023-05-07T08:50:48;100107.00;;;15.90
29423;BMP180;16399;51.686;8.684;2023-05-07T08:53:51;100112.00;;;16.00
29423;BMP180;16399;51.686;8.684;2023-05-07T08:56:53;100113.00;;;16.20
29423;BMP180;16399;51.686;8.684;2023-05-07T08:59:55;100109.00;;;16.40
29423;BMP180;16399;51.686;8.684;2023-05-07T09:02:58;100116.00;;;16.50
29423;BMP180;16399;51.686;8.684;2023-05-07T09:06:00;100113.00;;;16.70
29423;BMP180;16399;51.686;8.684;2023-05-07T09:09:02;100105.00;;;16.80
29423;BMP180;16399;51.686;8.684;2023-05-07T09:12:06;100112.00;;;17.00
29423;BMP180;16399;51.686;8.684;2023-05-07T09:15:09;100113.00;;;17.30
29423;BMP180;16399;51.686;8.684;2023-05-07T09:18:12;100116.00;;;17.50
29423;BMP180;16399;51.686;8.684;2023-05-07T09:21:19;100119.00;;;17.70
29423;BMP180;16399;51.686;8.684;2023-05-07T09:24:22;100115.00;;;17.80
29423;BMP180;16399;51.686;8.684;2023-05-07T09:27:25;100112.00;;;17.70
29423;BMP180;16399;51.686;8.684;2023-05-07T09:30:29;100105.00;;;17.90
29423;BMP180;16399;51.686;8.684;2023-05-07T09:33:32;100098.00;;;18.00
29423;BMP180;16399;51.686;8.684;2023-05-07T09:36:35;100110.00;;;18.20
29423;BMP180;16399;51.686;8.684;2023-05-07T09:39:42;100103.00;;;18.30
29423;BMP180;16399;51.686;8.684;2023-05-07T09:42:45;100100.00;;;18.70
29423;BMP180;16399;51.686;8.684;2023-05-07T09:45:48;100099.00;;;18.80
29423;BMP180;16399;51.686;8.684;2023-05-07T09:48:53;100088.00;;;18.90
29423;BMP180;16399;51.686;8.684;2023-05-07T09:51:58;100092.00;;;18.90
29423;BMP180;16399;51.686;8.684;2023-05-07T09:55:02;100102.00;;;18.90
29423;BMP180;16399;51.686;8.684;2023-05-07T09:58:06;100106.00;;;18.80
29423;BMP180;16399;51.686;8.684;2023-05-07T10:01:11;100100.00;;;18.90
29423;BMP180;16399;51.686;8.684;2023-05-07T10:04:14;100087.00;;;18.90
29423;BMP180;16399;51.686;8.684;2023-05-07T10:07:17;100098.00;;;19.00
29423;BMP180;16399;51.686;8.684;2023-05-07T10:10:19;100091.00;;;19.00
29423;BMP180;16399;51.686;8.684;2023-05-07T10:13:22;100099.00;;;19.30
29423;BMP180;16399;51.686;8.684;2023-05-07T10:16:26;100115.00;;;19.60
29423;BMP180;16399;51.686;8.684;2023-05-07T10:19:29;100121.00;;;19.70
29423;BMP180;16399;51.686;8.684;2023-05-07T10:22:41;100121.00;;;19.70
29423;BMP180;16399;51.686;8.684;2023-05-07T10:25:44;100119.00;;;19.30
29423;BMP180;16399;51.686;8.684;2023-05-07T10:28:49;100118.00;;;19.20
29423;BMP180;16399;51.686;8.684;2023-05-07T10:31:58;100100.00;;;19.20
29423;BMP180;16399;51.686;8.684;2023-05-07T10:35:03;100103.00;;;19.40
29423;BMP180;16399;51.686;8.684;2023-05-07T10:38:06;100106.00;;;19.60
29423;BMP180;16399;51.686;8.684;2023-05-07T10:41:10;100096.00;;;20.10
29423;BMP180;16399;51.686;8.684;2023-05-07T10:44:29;100099.00;;;20.40
29423;BMP180;16399;51.686;8.684;2023-05-07T10:47:32;100097.00;;;20.50
29423;BMP180;16399;51.686;8.684;2023-05-07T10:50:34;100102.00;;;20.50
29423;BMP180;16399;51.686;8.684;2023-05-07T10:53:37;100099.00;;;20.80
29423;BMP180;16399;51.686;8.684;2023-05-07T10:56:41;100095.00;;;20.70
29423;BMP180;16399;51.686;8.684;2023-05-07T10:59:45;100082.00;;;21.00
29423;BMP180;16399;51.686;8.684;2023-05-07T11:06:11;100094.00;;;21.30
29423;BMP180;16399;51.686;8.684;2023-05-07T11:09:13;100100.00;;;21.30
29423;BMP180;16399;51.686;8.684;2023-05-07T11:12:45;100102.00;;;21.10
29423;BMP180;16399;51.686;8.684;2023-05-07T11:15:35;100095.00;;;21.00
29423;BMP180;16399;51.686;8.684;2023-05-07T11:18:45;100094.00;;;21.00
29423;BMP180;16399;51.686;8.684;2023-05-07T11:21:48;100082.00;;;21.00
29423;BMP180;16399;51.686;8.684;2023-05-07T11:24:50;100087.00;;;21.00
29423;BMP180;16399;51.686;8.684;2023-05-07T11:27:53;100081.00;;;21.10
29423;BMP180;16399;51.686;8.684;2023-05-07T11:30:57;100086.00;;;21.30
29423;BMP180;16399;51.686;8.684;2023-05-07T11:34:00;100093.00;;;21.00
29423;BMP180;16399;51.686;8.684;2023-05-07T11:37:03;100101.00;;;21.00
29423;BMP180;16399;51.686;8.684;2023-05-07T11:40:09;100100.00;;;21.00
29423;BMP180;16399;51.686;8.684;2023-05-07T11:43:15;100097.00;;;20.90
29423;BMP180;16399;51.686;8.684;2023-05-07T11:46:17;100095.00;;;20.90
29423;BMP180;16399;51.686;8.684;2023-05-07T11:49:19;100092.00;;;20.90
29423;BMP180;16399;51.686;8.684;2023-05-07T11:52:23;100092.00;;;21.00
29423;BMP180;16399;51.686;8.684;2023-05-07T11:55:26;100097.00;;;21.10
29423;BMP180;16399;51.686;8.684;2023-05-07T11:58:28;100093.00;;;21.00
29423;BMP180;16399;51.686;8.684;2023-05-07T12:01:30;100104.00;;;21.10
29423;BMP180;16399;51.686;8.684;2023-05-07T12:04:32;100097.00;;;21.20
29423;BMP180;16399;51.686;8.684;2023-05-07T12:07:35;100087.00;;;21.50
29423;BMP180;16399;51.686;8.684;2023-05-07T12:10:42;100093.00;;;22.00
29423;BMP180;16399;51.686;8.684;2023-05-07T12:13:44;100093.00;;;22.30
29423;BMP180;16399;51.686;8.684;2023-05-07T12:16:47;100093.00;;;22.40
29423;BMP180;16399;51.686;8.684;2023-05-07T12:19:49;100082.00;;;22.30
29423;BMP180;16399;51.686;8.684;2023-05-07T12:22:52;100090.00;;;22.40
29423;BMP180;16399;51.686;8.684;2023-05-07T12:25:54;100092.00;;;22.80
29423;BMP180;16399;51.686;8.684;2023-05-07T12:28:58;100095.00;;;22.90
29423;BMP180;16399;51.686;8.684;2023-05-07T12:32:00;100097.00;;;23.10
29423;BMP180;16399;51.686;8.684;2023-05-07T12:35:03;100097.00;;;23.30
29423;BMP180;16399;51.686;8.684;2023-05-07T12:38:12;100100.00;;;23.00
29423;BMP180;16399;51.686;8.684;2023-05-07T12:41:15;100099.00;;;22.70
29423;BMP180;16399;51.686;8.684;2023-05-07T12:44:17;100116.00;;;22.20
29423;BMP180;16399;51.686;8.684;2023-05-07T12:47:21;100122.00;;;22.00
29423;BMP180;16399;51.686;8.684;2023-05-07T12:50:23;100113.00;;;21.70
29423;BMP180;16399;51.686;8.684;2023-05-07T12:53:27;100118.00;;;21.50
29423;BMP180;16399;51.686;8.684;2023-05-07T12:56:31;100112.00;;;21.20
29423;BMP180;16399;51.686;8.684;2023-05-07T12:59:42;100118.00;;;21.10
29423;BMP180;16399;51.686;8.684;2023-05-07T13:02:45;100124.00;;;20.70
29423;BMP180;16399;51.686;8.684;2023-05-07T13:05:48;100120.00;;;20.90
29423;BMP180;16399;51.686;8.684;2023-05-07T13:08:51;100110.00;;;20.80
29423;BMP180;16399;51.686;8.684;2023-05-07T13:11:53;100118.00;;;21.00
29423;BMP180;16399;51.686;8.684;2023-05-07T13:14:55;100113.00;;;21.10
29423;BMP180;16399;51.686;8.684;2023-05-07T13:17:58;100119.00;;;21.10
29423;BMP180;16399;51.686;8.684;2023-05-07T13:21:01;100117.00;;;21.10
29423;BMP180;16399;51.686;8.684;2023-05-07T13:24:03;100119.00;;;20.80
29423;BMP180;16399;51.686;8.684;2023-05-07T13:27:05;100117.00;;;20.70
29423;BMP180;16399;51.686;8.684;2023-05-07T13:30:08;100123.00;;;20.70
29423;BMP180;16399;51.686;8.684;2023-05-07T13:33:10;100121.00;;;20.80
29423;BMP180;16399;51.686;8.684;2023-05-07T13:36:12;100125.00;;;20.60
29423;BMP180;16399;51.686;8.684;2023-05-07T13:39:15;100123.00;;;20.80
29423;BMP180;16399;51.686;8.684;2023-05-07T13:42:17;100119.00;;;20.90
29423;BMP180;16399;51.686;8.684;2023-05-07T13:45:20;100109.00;;;21.00
29423;BMP180;16399;51.686;8.684;2023-05-07T13:48:22;100124.00;;;20.90
29423;BMP180;16399;51.686;8.684;2023-05-07T13:51:24;100119.00;;;21.10
29423;BMP180;16399;51.686;8.684;2023-05-07T13:54:27;100115.00;;;20.90
29423;BMP180;16399;51.686;8.684;2023-05-07T13:57:29;100103.00;;;20.90
29423;BMP180;16399;51.686;8.684;2023-05-07T14:00:31;100111.00;;;20.80
29423;BMP180;16399;51.686;8.684;2023-05-07T14:03:33;100103.00;;;20.90
29423;BMP180;16399;51.686;8.684;2023-05-07T14:06:37;100106.00;;;20.90
29423;BMP180;16399;51.686;8.684;2023-05-07T14:09:40;100116.00;;;20.60
29423;BMP180;16399;51.686;8.684;2023-05-07T14:12:43;100113.00;;;20.70
29423;BMP180;16399;51.686;8.684;2023-05-07T14:15:45;100125.00;;;20.30
29423;BMP180;16399;51.686;8.684;2023-05-07T14:18:49;100118.00;;;20.40
29423;BMP180;16399;51.686;8.684;2023-05-07T14:21:52;100123.00;;;20.40
29423;BMP180;16399;51.686;8.684;2023-05-07T14:24:54;100128.00;;;20.50
29423;BMP180;16399;51.686;8.684;2023-05-07T14:27:56;100129.00;;;20.50
29423;BMP180;16399;51.686;8.684;2023-05-07T14:30:58;100138.00;;;20.10
29423;BMP180;16399;51.686;8.684;2023-05-07T14:34:01;100125.00;;;20.10
29423;BMP180;16399;51.686;8.684;2023-05-07T14:37:03;100125.00;;;19.90
29423;BMP180;16399;51.686;8.684;2023-05-07T14:40:06;100134.00;;;19.80
29423;BMP180;16399;51.686;8.684;2023-05-07T14:43:09;100142.00;;;19.80
29423;BMP180;16399;51.686;8.684;2023-05-07T14:46:11;100136.00;;;19.70
29423;BMP180;16399;51.686;8.684;2023-05-07T14:49:14;100136.00;;;19.60
29423;BMP180;16399;51.686;8.684;2023-05-07T14:52:18;100134.00;;;19.60
29423;BMP180;16399;51.686;8.684;2023-05-07T14:55:20;100139.00;;;19.50
29423;BMP180;16399;51.686;8.684;2023-05-07T14:58:23;100140.00;;;19.40
29423;BMP180;16399;51.686;8.684;2023-05-07T15:01:26;100138.00;;;19.40
29423;BMP180;16399;51.686;8.684;2023-05-07T15:04:29;100146.00;;;19.30
29423;BMP180;16399;51.686;8.684;2023-05-07T15:07:31;100155.00;;;19.30
29423;BMP180;16399;51.686;8.684;2023-05-07T15:10:36;100161.00;;;19.30
29423;BMP180;16399;51.686;8.684;2023-05-07T15:13:42;100155.00;;;19.30
29423;BMP180;16399;51.686;8.684;2023-05-07T15:16:44;100160.00;;;19.00
29423;BMP180;16399;51.686;8.684;2023-05-07T15:19:47;100158.00;;;19.00
29423;BMP180;16399;51.686;8.684;2023-05-07T15:22:49;100157.00;;;18.90
29423;BMP180;16399;51.686;8.684;2023-05-07T15:25:52;100160.00;;;18.80
29423;BMP180;16399;51.686;8.684;2023-05-07T15:28:55;100159.00;;;18.70
29423;BMP180;16399;51.686;8.684;2023-05-07T15:31:58;100162.00;;;18.70
29423;BMP180;16399;51.686;8.684;2023-05-07T15:35:01;100163.00;;;18.60
29423;BMP180;16399;51.686;8.684;2023-05-07T15:38:04;100173.00;;;18.60
29423;BMP180;16399;51.686;8.684;2023-05-07T15:41:06;100166.00;;;18.60
29423;BMP180;16399;51.686;8.684;2023-05-07T15:44:08;100160.00;;;18.40
29423;BMP180;16399;51.686;8.684;2023-05-07T15:47:11;100164.00;;;18.50
29423;BMP180;16399;51.686;8.684;2023-05-07T15:50:15;100169.00;;;18.50
29423;BMP180;16399;51.686;8.684;2023-05-07T15:53:17;100165.00;;;18.40
29423;BMP180;16399;51.686;8.684;2023-05-07T15:56:19;100163.00;;;18.50
29423;BMP180;16399;51.686;8.684;2023-05-07T15:59:22;100166.00;;;18.30
29423;BMP180;16399;51.686;8.684;2023-05-07T16:02:24;100162.00;;;18.40
29423;BMP180;16399;51.686;8.684;2023-05-07T16:05:27;100169.00;;;18.40
29423;BMP180;16399;51.686;8.684;2023-05-07T16:08:29;100172.00;;;18.40
29423;BMP180;16399;51.686;8.684;2023-05-07T16:11:31;100161.00;;;18.30
29423;BMP180;16399;51.686;8.684;2023-05-07T16:14:34;100170.00;;;18.30
29423;BMP180;16399;51.686;8.684;2023-05-07T16:17:36;100167.00;;;18.30
29423;BMP180;16399;51.686;8.684;2023-05-07T16:20:39;100165.00;;;18.40
29423;BMP180;16399;51.686;8.684;2023-05-07T16:23:41;100166.00;;;18.30
29423;BMP180;16399;51.686;8.684;2023-05-07T16:26:44;100177.00;;;18.20
29423;BMP180;16399;51.686;8.684;2023-05-07T16:29:46;100170.00;;;18.00
29423;BMP180;16399;51.686;8.684;2023-05-07T16:32:48;100178.00;;;17.90
29423;BMP180;16399;51.686;8.684;2023-05-07T16:35:52;100176.00;;;17.80
29423;BMP180;16399;51.686;8.684;2023-05-07T16:38:55;100183.00;;;17.80
29423;BMP180;16399;51.686;8.684;2023-05-07T16:41:57;100185.00;;;17.70
29423;BMP180;16399;51.686;8.684;2023-05-07T16:45:00;100185.00;;;17.60
29423;BMP180;16399;51.686;8.684;2023-05-07T16:48:02;100184.00;;;17.60
29423;BMP180;16399;51.686;8.684;2023-05-07T16:51:05;100149.00;;;17.50
29423;BMP180;16399;51.686;8.684;2023-05-07T16:54:08;100185.00;;;17.50
29423;BMP180;16399;51.686;8.684;2023-05-07T16:57:11;100181.00;;;17.30
29423;BMP180;16399;51.686;8.684;2023-05-07T17:00:14;100186.00;;;17.20
29423;BMP180;16399;51.686;8.684;2023-05-07T17:03:17;100177.00;;;17.00
29423;BMP180;16399;51.686;8.684;2023-05-07T17:06:19;100181.00;;;16.90
29423;BMP180;16399;51.686;8.684;2023-05-07T17:09:22;100175.00;;;16.90
29423;BMP180;16399;51.686;8.684;2023-05-07T17:12:27;100178.00;;;16.80
29423;BMP180;16399;51.686;8.684;2023-05-07T17:15:31;100184.00;;;16.70
29423;BMP180;16399;51.686;8.684;2023-05-07T17:18:34;100184.00;;;16.70
29423;BMP180;16399;51.686;8.684;2023-05-07T17:21:36;100184.00;;;16.60
29423;BMP180;16399;51.686;8.684;2023-05-07T17:24:38;100179.00;;;16.60